sensor_id;sensor_type;location;lat;lon;timestamp;P1;durP1;ratioP1;P2;durP2;ratioP2
53533;SDS011;39421;53.204;6.568;2022-10-16T00:01:20;5.88;;;2.10;;
53533;SDS011;39421;53.204;6.568;2022-10-16T00:03:47;6.13;;;1.88;;
53533;SDS011;39421;53.204;6.568;2022-10-16T00:06:13;6.00;;;2.10;;
53533;SDS011;39421;53.204;6.568;2022-10-16T00:08:40;7.25;;;2.13;;
53533;SDS011;39421;53.204;6.568;2022-10-16T00:11:07;5.13;;;2.13;;
53533;SDS011;39421;53.204;6.568;2022-10-16T00:13:35;5.43;;;2.00;;
53533;SDS011;39421;53.204;6.568;2022-10-16T00:16:03;6.82;;;2.20;;
53533;SDS011;39421;53.204;6.568;2022-10-16T00:18:30;5.57;;;2.13;;
53533;SDS011;39421;53.204;6.568;2022-10-16T00:21:00;4.60;;;2.03;;
53533;SDS011;39421;53.204;6.568;2022-10-16T00:23:29;4.22;;;1.83;;
53533;SDS011;39421;53.204;6.568;2022-10-16T00:25:56;4.72;;;1.92;;
53533;SDS011;39421;53.204;6.568;2022-10-16T00:28:23;4.47;;;1.90;;
53533;SDS011;39421;53.204;6.568;2022-10-16T00:30:49;4.97;;;2.00;;
53533;SDS011;39421;53.204;6.568;2022-10-16T00:33:15;3.90;;;1.80;;
53533;SDS011;39421;53.204;6.568;2022-10-16T00:35:40;3.72;;;2.00;;
53533;SDS011;39421;53.204;6.568;2022-10-16T00:38:06;4.85;;;1.70;;
53533;SDS011;39421;53.204;6.568;2022-10-16T00:40:32;3.95;;;1.90;;
53533;SDS011;39421;53.204;6.568;2022-10-16T00:42:57;4.80;;;2.00;;
53533;SDS011;39421;53.204;6.568;2022-10-16T00:45:23;4.25;;;1.85;;
53533;SDS011;39421;53.204;6.568;2022-10-16T00:47:49;4.20;;;2.00;;
53533;SDS011;39421;53.204;6.568;2022-10-16T00:50:27;5.03;;;2.10;;
53533;SDS011;39421;53.204;6.568;2022-10-16T00:52:56;6.03;;;1.70;;
53533;SDS011;39421;53.204;6.568;2022-10-16T00:55:23;4.28;;;2.00;;
53533;SDS011;39421;53.204;6.568;2022-10-16T00:57:50;4.68;;;1.80;;
53533;SDS011;39421;53.204;6.568;2022-10-16T01:00:18;5.35;;;1.85;;
53533;SDS011;39421;53.204;6.568;2022-10-16T01:02:58;4.63;;;1.90;;
53533;SDS011;39421;53.204;6.568;2022-10-16T01:05:30;4.13;;;1.90;;
53533;SDS011;39421;53.204;6.568;2022-10-16T01:08:18;4.83;;;2.10;;
53533;SDS011;39421;53.204;6.568;2022-10-16T01:13:42;3.60;;;1.70;;
53533;SDS011;39421;53.204;6.568;2022-10-16T01:16:15;4.80;;;1.75;;
53533;SDS011;39421;53.204;6.568;2022-10-16T01:21:39;3.65;;;1.73;;
53533;SDS011;39421;53.204;6.568;2022-10-16T01:30:02;4.70;;;1.63;;
53533;SDS011;39421;53.204;6.568;2022-10-16T01:32:55;4.25;;;1.58;;
53533;SDS011;39421;53.204;6.568;2022-10-16T01:35:33;3.28;;;1.50;;
53533;SDS011;39421;53.204;6.568;2022-10-16T01:38:03;4.55;;;1.60;;
53533;SDS011;39421;53.204;6.568;2022-10-16T01:40:36;3.28;;;1.70;;
53533;SDS011;39421;53.204;6.568;2022-10-16T01:43:10;3.70;;;1.50;;
53533;SDS011;39421;53.204;6.568;2022-10-16T01:45:39;4.25;;;1.77;;
53533;SDS011;39421;53.204;6.568;2022-10-16T01:48:06;4.03;;;1.67;;
53533;SDS011;39421;53.204;6.568;2022-10-16T01:50:36;4.55;;;1.65;;
53533;SDS011;39421;53.204;6.568;2022-10-16T01:53:05;5.60;;;1.70;;
53533;SDS011;39421;53.204;6.568;2022-10-16T01:55:35;4.55;;;1.83;;
53533;SDS011;39421;53.204;6.568;2022-10-16T01:58:06;5.03;;;1.60;;
53533;SDS011;39421;53.204;6.568;2022-10-16T02:00:34;4.53;;;2.00;;
53533;SDS011;39421;53.204;6.568;2022-10-16T02:03:03;4.78;;;1.92;;
53533;SDS011;39421;53.204;6.568;2022-10-16T02:05:34;3.30;;;1.60;;
53533;SDS011;39421;53.204;6.568;2022-10-16T02:08:05;5.83;;;1.80;;
53533;SDS011;39421;53.204;6.568;2022-10-16T02:10:31;4.90;;;1.67;;
53533;SDS011;39421;53.204;6.568;2022-10-16T02:13:01;3.73;;;1.80;;
53533;SDS011;39421;53.204;6.568;2022-10-16T02:15:27;4.47;;;1.73;;
53533;SDS011;39421;53.204;6.568;2022-10-16T02:17:53;3.97;;;1.83;;
53533;SDS011;39421;53.204;6.568;2022-10-16T02:20:19;4.57;;;1.70;;
53533;SDS011;39421;53.204;6.568;2022-10-16T02:22:50;2.95;;;1.80;;
53533;SDS011;39421;53.204;6.568;2022-10-16T02:25:17;3.30;;;1.70;;
53533;SDS011;39421;53.204;6.568;2022-10-16T02:27:57;3.15;;;1.45;;
53533;SDS011;39421;53.204;6.568;2022-10-16T02:30:37;2.63;;;1.48;;
53533;SDS011;39421;53.204;6.568;2022-10-16T02:33:08;3.33;;;1.70;;
53533;SDS011;39421;53.204;6.568;2022-10-16T02:35:36;4.50;;;1.57;;
53533;SDS011;39421;53.204;6.568;2022-10-16T02:38:03;2.85;;;1.40;;
53533;SDS011;39421;53.204;6.568;2022-10-16T02:40:29;3.28;;;1.60;;
53533;SDS011;39421;53.204;6.568;2022-10-16T02:42:55;2.67;;;1.50;;
53533;SDS011;39421;53.204;6.568;2022-10-16T02:45:21;3.42;;;1.67;;
53533;SDS011;39421;53.204;6.568;2022-10-16T02:47:47;4.22;;;1.63;;
53533;SDS011;39421;53.204;6.568;2022-10-16T02:50:13;3.42;;;1.60;;
53533;SDS011;39421;53.204;6.568;2022-10-16T02:52:39;4.00;;;1.70;;
53533;SDS011;39421;53.204;6.568;2022-10-16T02:55:05;4.60;;;1.70;;
53533;SDS011;39421;53.204;6.568;2022-10-16T02:57:31;2.97;;;1.50;;
53533;SDS011;39421;53.204;6.568;2022-10-16T02:59:57;4.72;;;1.50;;
53533;SDS011;39421;53.204;6.568;2022-10-16T03:02:23;5.07;;;1.55;;
53533;SDS011;39421;53.204;6.568;2022-10-16T03:04:48;3.55;;;1.70;;
53533;SDS011;39421;53.204;6.568;2022-10-16T03:07:14;2.05;;;1.40;;
53533;SDS011;39421;53.204;6.568;2022-10-16T03:09:40;3.20;;;1.60;;
53533;SDS011;39421;53.204;6.568;2022-10-16T03:12:09;2.75;;;1.50;;
53533;SDS011;39421;53.204;6.568;2022-10-16T03:14:36;2.88;;;1.70;;
53533;SDS011;39421;53.204;6.568;2022-10-16T03:17:02;3.63;;;1.50;;
53533;SDS011;39421;53.204;6.568;2022-10-16T03:19:28;4.05;;;1.60;;
53533;SDS011;39421;53.204;6.568;2022-10-16T03:21:53;3.45;;;1.50;;
53533;SDS011;39421;53.204;6.568;2022-10-16T03:24:19;3.17;;;1.40;;
53533;SDS011;39421;53.204;6.568;2022-10-16T03:26:45;2.63;;;1.58;;
53533;SDS011;39421;53.204;6.568;2022-10-16T03:29:10;4.13;;;1.63;;
53533;SDS011;39421;53.204;6.568;2022-10-16T03:31:36;3.03;;;1.30;;
53533;SDS011;39421;53.204;6.568;2022-10-16T03:34:01;2.73;;;1.47;;
53533;SDS011;39421;53.204;6.568;2022-10-16T03:36:27;4.10;;;1.57;;
53533;SDS011;39421;53.204;6.568;2022-10-16T03:38:53;3.10;;;1.50;;
53533;SDS011;39421;53.204;6.568;2022-10-16T03:41:18;2.43;;;1.50;;
53533;SDS011;39421;53.204;6.568;2022-10-16T03:43:44;2.63;;;1.57;;
53533;SDS011;39421;53.204;6.568;2022-10-16T03:46:10;2.33;;;1.67;;
53533;SDS011;39421;53.204;6.568;2022-10-16T03:48:35;3.67;;;1.60;;
53533;SDS011;39421;53.204;6.568;2022-10-16T03:51:01;2.07;;;1.47;;
53533;SDS011;39421;53.204;6.568;2022-10-16T03:53:27;2.90;;;1.70;;
53533;SDS011;39421;53.204;6.568;2022-10-16T03:55:53;2.23;;;1.60;;
53533;SDS011;39421;53.204;6.568;2022-10-16T03:58:18;2.80;;;1.53;;
53533;SDS011;39421;53.204;6.568;2022-10-16T04:00:45;2.72;;;1.55;;
53533;SDS011;39421;53.204;6.568;2022-10-16T04:03:12;3.10;;;1.70;;
53533;SDS011;39421;53.204;6.568;2022-10-16T04:05:38;3.40;;;1.77;;
53533;SDS011;39421;53.204;6.568;2022-10-16T04:08:04;2.63;;;1.42;;
53533;SDS011;39421;53.204;6.568;2022-10-16T04:10:29;3.03;;;1.70;;
53533;SDS011;39421;53.204;6.568;2022-10-16T04:12:55;3.70;;;1.70;;
53533;SDS011;39421;53.204;6.568;2022-10-16T04:15:24;2.85;;;1.63;;
53533;SDS011;39421;53.204;6.568;2022-10-16T04:17:50;2.80;;;1.57;;
53533;SDS011;39421;53.204;6.568;2022-10-16T04:20:17;3.15;;;1.50;;
53533;SDS011;39421;53.204;6.568;2022-10-16T04:22:43;2.42;;;1.70;;
53533;SDS011;39421;53.204;6.568;2022-10-16T04:25:09;3.38;;;1.75;;
53533;SDS011;39421;53.204;6.568;2022-10-16T04:27:36;3.20;;;1.75;;
53533;SDS011;39421;53.204;6.568;2022-10-16T04:30:02;3.73;;;1.73;;
53533;SDS011;39421;53.204;6.568;2022-10-16T04:32:28;4.47;;;1.70;;
53533;SDS011;39421;53.204;6.568;2022-10-16T04:34:54;3.70;;;1.80;;
53533;SDS011;39421;53.204;6.568;2022-10-16T04:37:22;2.92;;;1.63;;
53533;SDS011;39421;53.204;6.568;2022-10-16T04:39:52;3.40;;;1.70;;
53533;SDS011;39421;53.204;6.568;2022-10-16T04:42:18;3.42;;;1.80;;
53533;SDS011;39421;53.204;6.568;2022-10-16T04:44:44;3.70;;;1.90;;
53533;SDS011;39421;53.204;6.568;2022-10-16T04:47:10;5.25;;;2.00;;
53533;SDS011;39421;53.204;6.568;2022-10-16T04:49:36;2.70;;;1.70;;
53533;SDS011;39421;53.204;6.568;2022-10-16T04:52:02;4.20;;;1.70;;
53533;SDS011;39421;53.204;6.568;2022-10-16T04:54:28;3.60;;;1.90;;
53533;SDS011;39421;53.204;6.568;2022-10-16T04:56:54;4.50;;;1.70;;
53533;SDS011;39421;53.204;6.568;2022-10-16T04:59:20;3.85;;;1.85;;
53533;SDS011;39421;53.204;6.568;2022-10-16T05:01:46;3.08;;;1.80;;
53533;SDS011;39421;53.204;6.568;2022-10-16T05:04:12;5.23;;;1.97;;
53533;SDS011;39421;53.204;6.568;2022-10-16T05:06:37;3.35;;;1.90;;
53533;SDS011;39421;53.204;6.568;2022-10-16T05:09:04;5.72;;;2.10;;
53533;SDS011;39421;53.204;6.568;2022-10-16T05:11:30;4.80;;;2.15;;
53533;SDS011;39421;53.204;6.568;2022-10-16T05:13:56;3.90;;;1.90;;
53533;SDS011;39421;53.204;6.568;2022-10-16T05:16:22;3.77;;;1.80;;
53533;SDS011;39421;53.204;6.568;2022-10-16T05:18:47;4.93;;;2.00;;
53533;SDS011;39421;53.204;6.568;2022-10-16T05:21:13;3.90;;;1.83;;
53533;SDS011;39421;53.204;6.568;2022-10-16T05:23:39;5.50;;;2.10;;
53533;SDS011;39421;53.204;6.568;2022-10-16T05:26:04;4.27;;;2.00;;
53533;SDS011;39421;53.204;6.568;2022-10-16T05:28:30;4.13;;;2.00;;
53533;SDS011;39421;53.204;6.568;2022-10-16T05:30:56;3.67;;;1.93;;
53533;SDS011;39421;53.204;6.568;2022-10-16T05:33:23;3.65;;;2.17;;
53533;SDS011;39421;53.204;6.568;2022-10-16T05:35:50;4.38;;;2.10;;
53533;SDS011;39421;53.204;6.568;2022-10-16T05:38:16;4.45;;;2.10;;
53533;SDS011;39421;53.204;6.568;2022-10-16T05:40:42;4.07;;;2.08;;
53533;SDS011;39421;53.204;6.568;2022-10-16T05:43:08;6.57;;;2.25;;
53533;SDS011;39421;53.204;6.568;2022-10-16T05:45:34;2.97;;;2.10;;
53533;SDS011;39421;53.204;6.568;2022-10-16T05:48:00;4.30;;;2.20;;
53533;SDS011;39421;53.204;6.568;2022-10-16T05:50:26;3.35;;;2.10;;
53533;SDS011;39421;53.204;6.568;2022-10-16T05:52:52;5.38;;;2.38;;
53533;SDS011;39421;53.204;6.568;2022-10-16T05:55:18;4.77;;;2.03;;
53533;SDS011;39421;53.204;6.568;2022-10-16T05:57:43;3.97;;;2.10;;
53533;SDS011;39421;53.204;6.568;2022-10-16T06:00:09;4.90;;;2.40;;
53533;SDS011;39421;53.204;6.568;2022-10-16T06:02:35;4.78;;;2.42;;
53533;SDS011;39421;53.204;6.568;2022-10-16T06:05:01;3.70;;;2.20;;
53533;SDS011;39421;53.204;6.568;2022-10-16T06:07:27;4.40;;;2.40;;
53533;SDS011;39421;53.204;6.568;2022-10-16T06:09:52;5.63;;;2.20;;
53533;SDS011;39421;53.204;6.568;2022-10-16T06:12:18;4.20;;;2.28;;
53533;SDS011;39421;53.204;6.568;2022-10-16T06:14:45;3.97;;;2.50;;
53533;SDS011;39421;53.204;6.568;2022-10-16T06:17:12;5.15;;;2.55;;
53533;SDS011;39421;53.204;6.568;2022-10-16T06:19:39;3.58;;;2.05;;
53533;SDS011;39421;53.204;6.568;2022-10-16T06:22:05;6.57;;;2.47;;
53533;SDS011;39421;53.204;6.568;2022-10-16T06:24:31;3.50;;;2.20;;
53533;SDS011;39421;53.204;6.568;2022-10-16T06:26:56;5.22;;;2.70;;
53533;SDS011;39421;53.204;6.568;2022-10-16T06:29:22;4.10;;;2.55;;
53533;SDS011;39421;53.204;6.568;2022-10-16T06:31:48;5.80;;;2.60;;
53533;SDS011;39421;53.204;6.568;2022-10-16T06:34:13;5.22;;;2.67;;
53533;SDS011;39421;53.204;6.568;2022-10-16T06:36:39;3.90;;;2.72;;
53533;SDS011;39421;53.204;6.568;2022-10-16T06:39:06;4.90;;;2.85;;
53533;SDS011;39421;53.204;6.568;2022-10-16T06:41:34;5.63;;;2.70;;
53533;SDS011;39421;53.204;6.568;2022-10-16T06:44:00;4.32;;;2.40;;
53533;SDS011;39421;53.204;6.568;2022-10-16T06:46:29;3.53;;;2.30;;
53533;SDS011;39421;53.204;6.568;2022-10-16T06:48:55;4.65;;;2.45;;
53533;SDS011;39421;53.204;6.568;2022-10-16T06:51:22;5.57;;;2.50;;
53533;SDS011;39421;53.204;6.568;2022-10-16T06:53:49;6.25;;;2.42;;
53533;SDS011;39421;53.204;6.568;2022-10-16T06:56:17;4.07;;;2.63;;
53533;SDS011;39421;53.204;6.568;2022-10-16T06:58:45;3.80;;;2.30;;
53533;SDS011;39421;53.204;6.568;2022-10-16T07:01:11;6.13;;;2.40;;
53533;SDS011;39421;53.204;6.568;2022-10-16T07:03:38;4.30;;;2.20;;
53533;SDS011;39421;53.204;6.568;2022-10-16T07:06:05;4.57;;;2.33;;
53533;SDS011;39421;53.204;6.568;2022-10-16T07:08:33;4.45;;;2.05;;
53533;SDS011;39421;53.204;6.568;2022-10-16T07:11:00;4.25;;;2.00;;
53533;SDS011;39421;53.204;6.568;2022-10-16T07:13:26;5.13;;;2.40;;
53533;SDS011;39421;53.204;6.568;2022-10-16T07:15:52;6.47;;;2.45;;
53533;SDS011;39421;53.204;6.568;2022-10-16T07:18:18;4.38;;;2.40;;
53533;SDS011;39421;53.204;6.568;2022-10-16T07:20:44;4.45;;;2.20;;
53533;SDS011;39421;53.204;6.568;2022-10-16T07:23:09;4.80;;;2.20;;
53533;SDS011;39421;53.204;6.568;2022-10-16T07:25:35;5.20;;;2.17;;
53533;SDS011;39421;53.204;6.568;2022-10-16T07:28:01;4.43;;;2.10;;
53533;SDS011;39421;53.204;6.568;2022-10-16T07:30:26;5.07;;;2.50;;
53533;SDS011;39421;53.204;6.568;2022-10-16T07:32:52;4.50;;;2.30;;
53533;SDS011;39421;53.204;6.568;2022-10-16T07:35:17;4.90;;;2.40;;
53533;SDS011;39421;53.204;6.568;2022-10-16T07:37:44;3.73;;;2.07;;
53533;SDS011;39421;53.204;6.568;2022-10-16T07:40:10;5.30;;;2.10;;
53533;SDS011;39421;53.204;6.568;2022-10-16T07:42:36;3.95;;;2.20;;
53533;SDS011;39421;53.204;6.568;2022-10-16T07:45:02;3.50;;;2.28;;
53533;SDS011;39421;53.204;6.568;2022-10-16T07:47:28;4.55;;;2.22;;
53533;SDS011;39421;53.204;6.568;2022-10-16T07:49:54;2.90;;;2.10;;
53533;SDS011;39421;53.204;6.568;2022-10-16T07:52:19;5.10;;;2.40;;
53533;SDS011;39421;53.204;6.568;2022-10-16T07:54:45;3.05;;;2.40;;
53533;SDS011;39421;53.204;6.568;2022-10-16T07:57:11;3.60;;;2.38;;
53533;SDS011;39421;53.204;6.568;2022-10-16T07:59:36;4.13;;;2.40;;
53533;SDS011;39421;53.204;6.568;2022-10-16T08:02:02;4.78;;;2.45;;
53533;SDS011;39421;53.204;6.568;2022-10-16T08:04:28;3.53;;;2.10;;
53533;SDS011;39421;53.204;6.568;2022-10-16T08:06:53;4.13;;;2.50;;
53533;SDS011;39421;53.204;6.568;2022-10-16T08:09:19;5.63;;;2.50;;
53533;SDS011;39421;53.204;6.568;2022-10-16T08:11:45;3.53;;;2.42;;
53533;SDS011;39421;53.204;6.568;2022-10-16T08:14:11;4.57;;;2.65;;
53533;SDS011;39421;53.204;6.568;2022-10-16T08:16:36;4.40;;;2.30;;
53533;SDS011;39421;53.204;6.568;2022-10-16T08:19:02;4.03;;;2.55;;
53533;SDS011;39421;53.204;6.568;2022-10-16T08:21:28;4.18;;;2.22;;
53533;SDS011;39421;53.204;6.568;2022-10-16T08:23:53;3.78;;;2.10;;
53533;SDS011;39421;53.204;6.568;2022-10-16T08:26:20;4.35;;;2.30;;
53533;SDS011;39421;53.204;6.568;2022-10-16T08:28:45;3.67;;;2.10;;
53533;SDS011;39421;53.204;6.568;2022-10-16T08:31:15;4.78;;;2.03;;
53533;SDS011;39421;53.204;6.568;2022-10-16T08:33:41;3.60;;;2.08;;
53533;SDS011;39421;53.204;6.568;2022-10-16T08:36:10;3.88;;;2.00;;
53533;SDS011;39421;53.204;6.568;2022-10-16T08:38:36;3.35;;;1.70;;
53533;SDS011;39421;53.204;6.568;2022-10-16T08:41:50;3.13;;;1.88;;
53533;SDS011;39421;53.204;6.568;2022-10-16T08:50:16;3.10;;;1.60;;
53533;SDS011;39421;53.204;6.568;2022-10-16T08:52:52;3.95;;;1.60;;
53533;SDS011;39421;53.204;6.568;2022-10-16T08:57:53;4.90;;;1.70;;
53533;SDS011;39421;53.204;6.568;2022-10-16T09:00:18;4.35;;;1.83;;
53533;SDS011;39421;53.204;6.568;2022-10-16T09:02:48;3.05;;;1.65;;
53533;SDS011;39421;53.204;6.568;2022-10-16T09:05:25;4.03;;;1.50;;
53533;SDS011;39421;53.204;6.568;2022-10-16T09:08:54;3.30;;;1.57;;
53533;SDS011;39421;53.204;6.568;2022-10-16T09:16:49;4.53;;;1.63;;
53533;SDS011;39421;53.204;6.568;2022-10-16T09:19:26;4.18;;;1.90;;
53533;SDS011;39421;53.204;6.568;2022-10-16T09:21:56;4.82;;;1.80;;
53533;SDS011;39421;53.204;6.568;2022-10-16T09:24:25;4.32;;;1.90;;
53533;SDS011;39421;53.204;6.568;2022-10-16T09:26:51;3.95;;;1.63;;
53533;SDS011;39421;53.204;6.568;2022-10-16T09:29:18;5.88;;;1.92;;
53533;SDS011;39421;53.204;6.568;2022-10-16T09:31:45;5.78;;;1.88;;
53533;SDS011;39421;53.204;6.568;2022-10-16T09:34:21;5.07;;;1.90;;
53533;SDS011;39421;53.204;6.568;2022-10-16T09:36:49;6.03;;;1.98;;
53533;SDS011;39421;53.204;6.568;2022-10-16T09:39:16;4.05;;;1.95;;
53533;SDS011;39421;53.204;6.568;2022-10-16T09:41:43;5.93;;;1.80;;
53533;SDS011;39421;53.204;6.568;2022-10-16T09:44:23;5.78;;;2.00;;
53533;SDS011;39421;53.204;6.568;2022-10-16T09:47:12;5.80;;;2.10;;
53533;SDS011;39421;53.204;6.568;2022-10-16T09:49:56;7.68;;;2.30;;
53533;SDS011;39421;53.204;6.568;2022-10-16T09:52:30;5.85;;;2.08;;
53533;SDS011;39421;53.204;6.568;2022-10-16T09:54:57;7.95;;;2.28;;
53533;SDS011;39421;53.204;6.568;2022-10-16T09:57:24;9.40;;;2.45;;
53533;SDS011;39421;53.204;6.568;2022-10-16T09:59:51;6.75;;;2.15;;
53533;SDS011;39421;53.204;6.568;2022-10-16T10:02:19;7.22;;;2.40;;
53533;SDS011;39421;53.204;6.568;2022-10-16T10:05:00;7.45;;;2.25;;
53533;SDS011;39421;53.204;6.568;2022-10-16T10:07:28;6.97;;;2.47;;
53533;SDS011;39421;53.204;6.568;2022-10-16T10:10:00;8.60;;;2.27;;
53533;SDS011;39421;53.204;6.568;2022-10-16T10:12:28;7.65;;;2.60;;
53533;SDS011;39421;53.204;6.568;2022-10-16T10:14:58;6.70;;;2.25;;
53533;SDS011;39421;53.204;6.568;2022-10-16T10:17:29;6.70;;;2.10;;
53533;SDS011;39421;53.204;6.568;2022-10-16T10:19:59;6.85;;;2.50;;
53533;SDS011;39421;53.204;6.568;2022-10-16T10:30:28;9.52;;;2.40;;
53533;SDS011;39421;53.204;6.568;2022-10-16T10:33:16;8.45;;;2.50;;
53533;SDS011;39421;53.204;6.568;2022-10-16T10:38:40;7.10;;;2.28;;
53533;SDS011;39421;53.204;6.568;2022-10-16T10:50:22;7.32;;;2.60;;
53533;SDS011;39421;53.204;6.568;2022-10-16T10:55:52;6.07;;;2.47;;
53533;SDS011;39421;53.204;6.568;2022-10-16T11:07:31;5.80;;;2.10;;
53533;SDS011;39421;53.204;6.568;2022-10-16T11:10:03;6.68;;;2.25;;
53533;SDS011;39421;53.204;6.568;2022-10-16T11:12:39;6.67;;;2.20;;
53533;SDS011;39421;53.204;6.568;2022-10-16T11:15:17;6.80;;;2.40;;
53533;SDS011;39421;53.204;6.568;2022-10-16T11:17:57;6.88;;;2.20;;
53533;SDS011;39421;53.204;6.568;2022-10-16T11:20:42;8.48;;;2.50;;
53533;SDS011;39421;53.204;6.568;2022-10-16T11:23:23;6.78;;;2.28;;
53533;SDS011;39421;53.204;6.568;2022-10-16T11:26:05;8.18;;;2.45;;
53533;SDS011;39421;53.204;6.568;2022-10-16T11:28:46;7.73;;;2.30;;
53533;SDS011;39421;53.204;6.568;2022-10-16T11:33:45;9.60;;;2.40;;
53533;SDS011;39421;53.204;6.568;2022-10-16T11:36:18;7.22;;;2.63;;
53533;SDS011;39421;53.204;6.568;2022-10-16T11:39:32;5.45;;;2.03;;
53533;SDS011;39421;53.204;6.568;2022-10-16T11:42:03;5.22;;;2.10;;
53533;SDS011;39421;53.204;6.568;2022-10-16T11:47:58;7.05;;;2.30;;
53533;SDS011;39421;53.204;6.568;2022-10-16T11:50:32;7.83;;;2.40;;
53533;SDS011;39421;53.204;6.568;2022-10-16T11:55:38;7.03;;;2.00;;
53533;SDS011;39421;53.204;6.568;2022-10-16T11:58:07;8.25;;;2.00;;
53533;SDS011;39421;53.204;6.568;2022-10-16T12:00:45;6.70;;;2.17;;
53533;SDS011;39421;53.204;6.568;2022-10-16T12:06:10;6.07;;;2.30;;
53533;SDS011;39421;53.204;6.568;2022-10-16T12:08:52;7.15;;;2.30;;
53533;SDS011;39421;53.204;6.568;2022-10-16T12:11:22;6.25;;;2.00;;
53533;SDS011;39421;53.204;6.568;2022-10-16T12:13:48;8.63;;;2.38;;
53533;SDS011;39421;53.204;6.568;2022-10-16T12:18:40;5.93;;;2.22;;
53533;SDS011;39421;53.204;6.568;2022-10-16T12:21:07;6.05;;;2.13;;
53533;SDS011;39421;53.204;6.568;2022-10-16T12:23:38;6.68;;;2.20;;
53533;SDS011;39421;53.204;6.568;2022-10-16T12:26:12;8.27;;;2.75;;
53533;SDS011;39421;53.204;6.568;2022-10-16T12:28:38;8.73;;;2.30;;
53533;SDS011;39421;53.204;6.568;2022-10-16T12:31:06;7.75;;;2.22;;
53533;SDS011;39421;53.204;6.568;2022-10-16T12:36:08;6.38;;;2.33;;
53533;SDS011;39421;53.204;6.568;2022-10-16T12:38:47;8.00;;;2.25;;
53533;SDS011;39421;53.204;6.568;2022-10-16T12:41:26;8.32;;;2.35;;
53533;SDS011;39421;53.204;6.568;2022-10-16T12:44:00;6.88;;;2.15;;
53533;SDS011;39421;53.204;6.568;2022-10-16T12:49:55;6.07;;;2.08;;
53533;SDS011;39421;53.204;6.568;2022-10-16T12:51:53;6.53;;;2.15;;
53533;SDS011;39421;53.204;6.568;2022-10-16T12:54:36;6.78;;;2.45;;
53533;SDS011;39421;53.204;6.568;2022-10-16T12:59:59;7.18;;;2.40;;
53533;SDS011;39421;53.204;6.568;2022-10-16T13:02:40;5.95;;;2.15;;
53533;SDS011;39421;53.204;6.568;2022-10-16T13:05:38;6.40;;;2.10;;
53533;SDS011;39421;53.204;6.568;2022-10-16T13:11:23;8.65;;;2.30;;
53533;SDS011;39421;53.204;6.568;2022-10-16T13:16:54;7.03;;;2.03;;
53533;SDS011;39421;53.204;6.568;2022-10-16T13:19:48;7.03;;;2.00;;
53533;SDS011;39421;53.204;6.568;2022-10-16T13:22:44;6.70;;;2.05;;
53533;SDS011;39421;53.204;6.568;2022-10-16T13:27:56;7.07;;;2.30;;
53533;SDS011;39421;53.204;6.568;2022-10-16T13:30:38;5.72;;;2.25;;
53533;SDS011;39421;53.204;6.568;2022-10-16T13:33:07;9.00;;;2.50;;
53533;SDS011;39421;53.204;6.568;2022-10-16T13:35:48;6.50;;;2.27;;
53533;SDS011;39421;53.204;6.568;2022-10-16T13:38:17;6.57;;;2.28;;
53533;SDS011;39421;53.204;6.568;2022-10-16T13:41:04;7.23;;;2.40;;
53533;SDS011;39421;53.204;6.568;2022-10-16T13:43:32;7.27;;;2.10;;
53533;SDS011;39421;53.204;6.568;2022-10-16T13:46:10;5.83;;;2.27;;
53533;SDS011;39421;53.204;6.568;2022-10-16T13:48:38;5.88;;;2.13;;
53533;SDS011;39421;53.204;6.568;2022-10-16T13:51:05;7.38;;;2.30;;
53533;SDS011;39421;53.204;6.568;2022-10-16T13:53:36;8.02;;;2.30;;
53533;SDS011;39421;53.204;6.568;2022-10-16T13:56:03;6.80;;;2.17;;
53533;SDS011;39421;53.204;6.568;2022-10-16T13:58:31;6.50;;;2.47;;
53533;SDS011;39421;53.204;6.568;2022-10-16T14:01:15;6.28;;;2.40;;
53533;SDS011;39421;53.204;6.568;2022-10-16T14:03:43;8.25;;;2.30;;
53533;SDS011;39421;53.204;6.568;2022-10-16T14:06:14;7.45;;;2.58;;
53533;SDS011;39421;53.204;6.568;2022-10-16T14:08:43;8.20;;;2.53;;
53533;SDS011;39421;53.204;6.568;2022-10-16T14:11:19;6.95;;;2.30;;
53533;SDS011;39421;53.204;6.568;2022-10-16T14:13:49;7.68;;;2.40;;
53533;SDS011;39421;53.204;6.568;2022-10-16T14:16:20;7.22;;;2.35;;
53533;SDS011;39421;53.204;6.568;2022-10-16T14:18:58;9.52;;;2.58;;
53533;SDS011;39421;53.204;6.568;2022-10-16T14:21:26;8.73;;;2.63;;
53533;SDS011;39421;53.204;6.568;2022-10-16T14:23:53;8.45;;;2.35;;
53533;SDS011;39421;53.204;6.568;2022-10-16T14:26:20;7.67;;;2.50;;
53533;SDS011;39421;53.204;6.568;2022-10-16T14:28:48;8.33;;;2.53;;
53533;SDS011;39421;53.204;6.568;2022-10-16T14:31:29;9.52;;;2.50;;
53533;SDS011;39421;53.204;6.568;2022-10-16T14:33:57;10.43;;;2.65;;
53533;SDS011;39421;53.204;6.568;2022-10-16T14:36:24;8.40;;;2.30;;
53533;SDS011;39421;53.204;6.568;2022-10-16T14:41:29;7.53;;;2.38;;
53533;SDS011;39421;53.204;6.568;2022-10-16T14:43:57;7.75;;;2.15;;
53533;SDS011;39421;53.204;6.568;2022-10-16T14:46:30;8.77;;;2.55;;
53533;SDS011;39421;53.204;6.568;2022-10-16T14:51:36;8.10;;;2.70;;
53533;SDS011;39421;53.204;6.568;2022-10-16T14:54:02;9.32;;;2.70;;
53533;SDS011;39421;53.204;6.568;2022-10-16T14:56:33;7.43;;;2.30;;
53533;SDS011;39421;53.204;6.568;2022-10-16T14:59:19;9.38;;;2.40;;
53533;SDS011;39421;53.204;6.568;2022-10-16T15:04:54;9.35;;;2.80;;
53533;SDS011;39421;53.204;6.568;2022-10-16T15:07:21;7.00;;;2.23;;
53533;SDS011;39421;53.204;6.568;2022-10-16T15:09:46;9.00;;;2.40;;
53533;SDS011;39421;53.204;6.568;2022-10-16T15:12:12;8.33;;;2.80;;
53533;SDS011;39421;53.204;6.568;2022-10-16T15:14:38;6.27;;;2.37;;
53533;SDS011;39421;53.204;6.568;2022-10-16T15:17:04;10.07;;;2.50;;
53533;SDS011;39421;53.204;6.568;2022-10-16T15:19:30;9.35;;;2.50;;
53533;SDS011;39421;53.204;6.568;2022-10-16T15:21:55;7.78;;;2.42;;
53533;SDS011;39421;53.204;6.568;2022-10-16T15:24:21;8.07;;;2.23;;
53533;SDS011;39421;53.204;6.568;2022-10-16T15:26:47;7.13;;;2.20;;
53533;SDS011;39421;53.204;6.568;2022-10-16T15:29:14;7.55;;;2.35;;
53533;SDS011;39421;53.204;6.568;2022-10-16T15:31:40;10.00;;;2.53;;
53533;SDS011;39421;53.204;6.568;2022-10-16T15:34:12;7.15;;;2.28;;
53533;SDS011;39421;53.204;6.568;2022-10-16T15:36:38;8.38;;;2.40;;
53533;SDS011;39421;53.204;6.568;2022-10-16T15:39:05;5.63;;;2.28;;
53533;SDS011;39421;53.204;6.568;2022-10-16T15:41:40;7.00;;;2.33;;
53533;SDS011;39421;53.204;6.568;2022-10-16T15:44:06;5.90;;;2.03;;
53533;SDS011;39421;53.204;6.568;2022-10-16T15:46:32;7.97;;;2.45;;
53533;SDS011;39421;53.204;6.568;2022-10-16T15:48:59;6.78;;;2.38;;
53533;SDS011;39421;53.204;6.568;2022-10-16T15:51:25;7.90;;;2.40;;
53533;SDS011;39421;53.204;6.568;2022-10-16T15:53:58;7.90;;;2.20;;
53533;SDS011;39421;53.204;6.568;2022-10-16T15:56:26;7.93;;;2.33;;
53533;SDS011;39421;53.204;6.568;2022-10-16T15:58:53;8.25;;;2.40;;
53533;SDS011;39421;53.204;6.568;2022-10-16T16:01:19;8.23;;;2.63;;
53533;SDS011;39421;53.204;6.568;2022-10-16T16:03:46;8.18;;;2.60;;
53533;SDS011;39421;53.204;6.568;2022-10-16T16:06:12;9.43;;;2.42;;
53533;SDS011;39421;53.204;6.568;2022-10-16T16:08:39;8.05;;;2.50;;
53533;SDS011;39421;53.204;6.568;2022-10-16T16:11:12;8.05;;;2.47;;
53533;SDS011;39421;53.204;6.568;2022-10-16T16:13:38;8.52;;;2.72;;
53533;SDS011;39421;53.204;6.568;2022-10-16T16:16:06;7.37;;;2.63;;
53533;SDS011;39421;53.204;6.568;2022-10-16T16:18:36;7.88;;;2.67;;
53533;SDS011;39421;53.204;6.568;2022-10-16T16:21:02;7.47;;;2.70;;
53533;SDS011;39421;53.204;6.568;2022-10-16T16:23:28;6.38;;;2.42;;
53533;SDS011;39421;53.204;6.568;2022-10-16T16:28:31;8.75;;;3.03;;
53533;SDS011;39421;53.204;6.568;2022-10-16T16:30:57;6.53;;;2.47;;
53533;SDS011;39421;53.204;6.568;2022-10-16T16:33:23;8.70;;;2.50;;
53533;SDS011;39421;53.204;6.568;2022-10-16T16:35:49;8.23;;;2.45;;
53533;SDS011;39421;53.204;6.568;2022-10-16T16:38:15;8.55;;;2.42;;
53533;SDS011;39421;53.204;6.568;2022-10-16T16:40:43;8.45;;;2.80;;